createdAt,value
2023-05-12T00:00:03.321Z,11.63
2023-05-12T00:02:42.574Z,11.44
2023-05-12T00:05:12.470Z,11.53
2023-05-12T00:07:41.371Z,11.57
2023-05-12T00:10:10.948Z,11.52
2023-05-12T00:12:39.737Z,11.55
2023-05-12T00:15:09.579Z,11.57
2023-05-12T00:17:38.257Z,11.66
2023-05-12T00:20:09.868Z,11.62
2023-05-12T00:22:38.838Z,11.75
2023-05-12T00:25:08.061Z,11.81
2023-05-12T00:27:37.032Z,11.73
2023-05-12T00:30:07.151Z,11.64
2023-05-12T00:32:36.004Z,11.59
2023-05-12T00:35:05.013Z,11.73
2023-05-12T00:37:35.438Z,11.77
2023-05-12T00:40:05.470Z,11.80
2023-05-12T00:42:36.251Z,11.71
2023-05-12T00:45:09.280Z,11.64
2023-05-12T00:47:38.746Z,11.64
2023-05-12T00:50:08.775Z,11.70
2023-05-12T00:52:38.962Z,11.76
2023-05-12T00:55:08.340Z,11.85
2023-05-12T00:57:37.364Z,11.78
2023-05-12T01:00:09.026Z,11.84
2023-05-12T01:02:39.522Z,11.88
2023-05-12T01:05:10.285Z,11.87
2023-05-12T01:07:43.841Z,11.91
2023-05-12T01:10:21.050Z,11.92
2023-05-12T01:12:50.484Z,11.95
2023-05-12T01:15:21.309Z,11.94
2023-05-12T01:17:57.536Z,11.93
2023-05-12T01:20:29.125Z,11.90
2023-05-12T01:23:00.884Z,11.98
2023-05-12T01:25:34.191Z,12.04
2023-05-12T01:28:07.110Z,12.07
2023-05-12T01:30:42.220Z,12.09
2023-05-12T01:33:13.222Z,12.12
2023-05-12T01:35:42.259Z,12.09
2023-05-12T01:38:11.083Z,12.07
2023-05-12T01:40:42.042Z,12.13
2023-05-12T01:43:12.478Z,12.19
2023-05-12T01:45:41.453Z,12.22
2023-05-12T01:48:11.960Z,12.23
2023-05-12T01:50:40.724Z,12.23
2023-05-12T01:53:13.488Z,12.23
2023-05-12T01:55:43.205Z,12.23
2023-05-12T01:58:13.932Z,12.23
2023-05-12T02:00:42.830Z,12.24
2023-05-12T02:03:16.688Z,12.25
2023-05-12T02:05:45.686Z,12.25
2023-05-12T02:08:14.355Z,12.24
2023-05-12T02:10:43.394Z,12.24
2023-05-12T02:13:14.212Z,12.27
2023-05-12T02:15:43.245Z,12.24
2023-05-12T02:18:12.439Z,12.21
2023-05-12T02:20:41.575Z,12.22
2023-05-12T02:23:11.469Z,12.20
2023-05-12T02:25:40.286Z,12.21
2023-05-12T02:28:12.233Z,12.15
2023-05-12T02:30:49.073Z,12.21
2023-05-12T02:33:19.091Z,12.20
2023-05-12T02:35:47.964Z,12.25
2023-05-12T02:38:17.068Z,12.25
2023-05-12T02:40:46.094Z,12.18
2023-05-12T02:43:16.524Z,12.15
2023-05-12T02:45:45.503Z,12.10
2023-05-12T02:48:15.779Z,12.04
2023-05-12T02:50:44.691Z,12.04
2023-05-12T02:53:13.755Z,12.07
2023-05-12T02:55:42.695Z,12.05
2023-05-12T02:58:11.768Z,12.03
2023-05-12T03:00:40.672Z,11.99
2023-05-12T03:03:09.660Z,11.99
2023-05-12T03:05:39.947Z,11.99
2023-05-12T03:08:09.146Z,11.95
2023-05-12T03:10:38.208Z,12.02
2023-05-12T03:13:07.407Z,12.05
2023-05-12T03:15:37.276Z,12.05
2023-05-12T03:18:07.103Z,11.96
2023-05-12T03:20:36.165Z,11.84
2023-05-12T03:23:06.340Z,11.83
2023-05-12T03:25:36.187Z,11.89
2023-05-12T03:28:05.010Z,11.92
2023-05-12T03:30:34.412Z,11.85
2023-05-12T03:33:03.268Z,11.79
2023-05-12T03:35:32.584Z,11.83
2023-05-12T03:38:05.419Z,11.93
2023-05-12T03:40:34.204Z,11.99
2023-05-12T03:43:03.114Z,12.06
2023-05-12T03:45:31.904Z,12.03
2023-05-12T03:48:00.677Z,12.04
2023-05-12T03:50:29.556Z,11.98
2023-05-12T03:52:58.300Z,11.90
2023-05-12T03:55:28.414Z,11.94
2023-05-12T03:57:57.181Z,11.93
2023-05-12T04:00:26.123Z,11.89
2023-05-12T04:02:55.039Z,11.81
2023-05-12T04:05:24.828Z,11.78
2023-05-12T04:07:53.347Z,11.91
2023-05-12T04:10:22.438Z,11.93
2023-05-12T04:12:53.779Z,11.96
2023-05-12T04:15:22.903Z,11.94
2023-05-12T04:17:52.231Z,11.96
2023-05-12T04:20:21.727Z,11.88
2023-05-12T04:22:51.849Z,11.90
2023-05-12T04:25:20.640Z,11.91
2023-05-12T04:27:49.367Z,11.94
2023-05-12T04:30:20.195Z,11.89
2023-05-12T04:32:49.897Z,11.81
2023-05-12T04:35:19.800Z,11.83
2023-05-12T04:37:49.302Z,11.80
2023-05-12T04:40:19.115Z,11.78
2023-05-12T04:42:47.887Z,11.77
2023-05-12T04:45:18.080Z,11.71
2023-05-12T04:47:49.547Z,11.73
2023-05-12T04:50:18.534Z,11.71
2023-05-12T04:52:47.340Z,11.76
2023-05-12T04:55:16.728Z,11.78
2023-05-12T04:57:46.669Z,11.73
2023-05-12T05:00:16.412Z,11.91
2023-05-12T05:02:48.853Z,11.89
2023-05-12T05:05:19.229Z,11.89
2023-05-12T05:07:48.338Z,11.90
2023-05-12T05:10:17.186Z,11.89
2023-05-12T05:12:47.134Z,11.90
2023-05-12T05:15:16.088Z,11.88
2023-05-12T05:17:49.756Z,11.93
2023-05-12T05:20:25.603Z,12.04
2023-05-12T05:22:58.102Z,12.07
2023-05-12T05:25:28.140Z,12.15
2023-05-12T05:27:58.538Z,12.24
2023-05-12T05:30:28.331Z,12.30
2023-05-12T05:32:57.223Z,12.35
2023-05-12T05:35:27.393Z,12.32
2023-05-12T05:37:56.821Z,12.27
2023-05-12T05:40:27.178Z,12.25
2023-05-12T05:42:56.753Z,12.28
2023-05-12T05:45:27.591Z,12.31
2023-05-12T05:47:57.606Z,12.30
2023-05-12T05:50:28.490Z,12.35
2023-05-12T05:52:58.060Z,12.42
2023-05-12T05:55:27.167Z,12.47
2023-05-12T05:57:56.264Z,12.48
2023-05-12T06:00:25.365Z,12.61
2023-05-12T06:02:54.486Z,12.76
2023-05-12T06:05:24.011Z,12.84
2023-05-12T06:07:54.355Z,12.88
2023-05-12T06:10:23.463Z,12.93
2023-05-12T06:12:52.259Z,12.96
2023-05-12T06:15:23.177Z,13.04
2023-05-12T06:17:52.190Z,13.14
2023-05-12T06:20:23.431Z,13.17
2023-05-12T06:22:53.614Z,13.22
2023-05-12T06:25:22.578Z,13.32
2023-05-12T06:27:53.639Z,13.37
2023-05-12T06:30:22.490Z,13.36
2023-05-12T06:32:51.161Z,13.36
2023-05-12T06:35:20.324Z,13.31
2023-05-12T06:37:51.307Z,13.35
2023-05-12T06:40:21.795Z,13.47
2023-05-12T06:42:50.519Z,13.59
2023-05-12T06:45:23.990Z,13.68
2023-05-12T06:47:53.417Z,13.72
2023-05-12T06:50:22.087Z,13.72
2023-05-12T06:52:54.971Z,13.74
2023-05-12T06:55:25.360Z,13.75
2023-05-12T06:57:56.282Z,13.83
2023-05-12T07:00:25.844Z,13.94
2023-05-12T07:02:54.805Z,14.05
2023-05-12T07:05:23.950Z,14.14
2023-05-12T07:07:53.197Z,14.16
2023-05-12T07:10:22.264Z,14.19
2023-05-12T07:12:52.451Z,14.26
2023-05-12T07:15:21.417Z,14.32
2023-05-12T07:17:50.326Z,14.43
2023-05-12T07:20:19.223Z,14.58
2023-05-12T07:22:47.857Z,14.66
2023-05-12T07:25:17.336Z,14.75
2023-05-12T07:27:46.104Z,14.82
2023-05-12T07:30:16.778Z,14.92
2023-05-12T07:32:46.494Z,15.03
2023-05-12T07:35:15.470Z,15.01
2023-05-12T07:37:44.132Z,15.01
2023-05-12T07:40:13.201Z,15.08
2023-05-12T07:42:42.106Z,15.17
2023-05-12T07:45:11.272Z,15.26
2023-05-12T07:47:42.236Z,15.34
2023-05-12T07:50:11.336Z,15.36
2023-05-12T07:52:48.087Z,15.40
2023-05-12T07:55:17.159Z,15.36
2023-05-12T07:57:46.157Z,15.26
2023-05-12T08:00:15.934Z,15.44
2023-05-12T08:02:47.683Z,15.59
2023-05-12T08:05:17.545Z,15.67
2023-05-12T08:07:46.698Z,15.73
2023-05-12T08:10:15.763Z,15.77
2023-05-12T08:12:44.868Z,15.84
2023-05-12T08:15:13.638Z,15.87
2023-05-12T08:17:42.411Z,15.94
2023-05-12T08:20:14.181Z,16.02
2023-05-12T08:22:43.107Z,16.13
2023-05-12T08:25:12.561Z,16.18
2023-05-12T08:27:41.936Z,16.14
2023-05-12T08:30:11.485Z,16.22
2023-05-12T08:32:40.100Z,16.32
2023-05-12T08:35:09.088Z,16.39
2023-05-12T08:37:39.289Z,16.50
2023-05-12T08:40:17.809Z,16.59
2023-05-12T08:42:56.220Z,16.66
2023-05-12T08:45:25.625Z,16.73
2023-05-12T08:47:55.226Z,16.74
2023-05-12T08:50:24.878Z,16.58
2023-05-12T08:52:55.186Z,16.49
2023-05-12T08:55:28.516Z,16.49
2023-05-12T08:58:01.531Z,16.59
2023-05-12T09:00:31.410Z,16.72
2023-05-12T09:03:02.715Z,16.81
2023-05-12T09:05:43.498Z,16.77
2023-05-12T09:08:14.152Z,16.88
2023-05-12T09:10:43.063Z,16.94
2023-05-12T09:13:17.634Z,16.96
2023-05-12T09:15:49.487Z,17.00
2023-05-12T09:18:18.568Z,16.98
2023-05-12T09:20:47.367Z,17.01
2023-05-12T09:23:20.298Z,16.81
2023-05-12T09:26:00.790Z,16.77
2023-05-12T09:28:37.418Z,16.76
2023-05-12T09:31:20.472Z,16.75
2023-05-12T09:33:49.347Z,16.67
2023-05-12T09:36:21.501Z,16.74
2023-05-12T09:39:04.976Z,16.67
2023-05-12T09:41:37.016Z,16.80
2023-05-12T09:44:06.206Z,16.73
2023-05-12T09:46:34.980Z,16.71
2023-05-12T09:49:04.582Z,16.69
2023-05-12T09:51:33.463Z,16.73
2023-05-12T09:54:05.723Z,16.81
2023-05-12T09:56:39.445Z,16.81
2023-05-12T09:59:10.205Z,16.84
2023-05-12T10:01:39.561Z,16.87
2023-05-12T10:04:10.160Z,16.92
2023-05-12T10:06:43.336Z,16.92
2023-05-12T10:09:21.404Z,17.00
2023-05-12T10:11:53.675Z,16.90
2023-05-12T10:14:25.124Z,16.92
2023-05-12T10:16:55.717Z,16.93
2023-05-12T10:19:26.745Z,16.97
2023-05-12T10:21:57.922Z,17.02
2023-05-12T10:24:29.158Z,17.01
2023-05-12T10:26:59.795Z,17.07
2023-05-12T10:29:30.657Z,17.10
2023-05-12T10:32:00.193Z,17.11
2023-05-12T10:34:31.947Z,17.21
2023-05-12T10:37:00.722Z,17.32
2023-05-12T10:39:33.126Z,17.34
2023-05-12T10:42:08.704Z,17.43
2023-05-12T10:44:38.302Z,17.40
2023-05-12T10:47:15.113Z,17.41
2023-05-12T10:49:44.200Z,17.44
2023-05-12T10:52:13.989Z,17.54
2023-05-12T10:54:47.452Z,17.68
2023-05-12T10:57:19.301Z,18.01
2023-05-12T10:59:52.878Z,18.20
2023-05-12T11:02:30.286Z,18.15
2023-05-12T11:05:01.330Z,18.28
2023-05-12T11:07:35.262Z,18.42
2023-05-12T11:10:07.875Z,18.54
2023-05-12T11:12:37.629Z,18.60
2023-05-12T11:15:07.406Z,18.59
2023-05-12T11:17:40.187Z,18.56
2023-05-12T11:20:11.103Z,18.53
2023-05-12T11:22:43.581Z,18.27
2023-05-12T11:25:14.845Z,18.26
2023-05-12T11:27:50.054Z,18.09
2023-05-12T11:30:19.999Z,18.08
2023-05-12T11:32:49.324Z,18.02
2023-05-12T11:35:20.392Z,17.96
2023-05-12T11:37:49.484Z,17.87
2023-05-12T11:40:21.132Z,17.82
2023-05-12T11:42:53.142Z,17.72
2023-05-12T11:45:25.016Z,17.58
2023-05-12T11:47:55.268Z,17.41
2023-05-12T11:50:26.622Z,17.15
2023-05-12T11:52:55.795Z,16.91
2023-05-12T11:55:27.209Z,16.62
2023-05-12T11:58:00.749Z,16.42
2023-05-12T12:00:32.657Z,16.23
2023-05-12T12:03:12.792Z,16.19
2023-05-12T12:05:42.851Z,16.25
2023-05-12T12:08:13.979Z,16.18
2023-05-12T12:10:46.799Z,16.08
2023-05-12T12:13:21.783Z,15.88
2023-05-12T12:15:51.002Z,15.71
2023-05-12T12:18:20.294Z,15.71
2023-05-12T12:20:49.130Z,15.77
2023-05-12T12:23:18.043Z,15.66
2023-05-12T12:25:48.284Z,15.67
2023-05-12T12:28:17.039Z,15.70
2023-05-12T12:30:45.742Z,15.70
2023-05-12T12:33:14.633Z,15.61
2023-05-12T12:35:43.636Z,15.59
2023-05-12T12:38:12.498Z,15.60
2023-05-12T12:40:41.247Z,15.60
2023-05-12T12:43:11.531Z,15.57
2023-05-12T12:45:40.284Z,15.63
2023-05-12T12:48:09.434Z,15.69
2023-05-12T12:50:38.669Z,15.69
2023-05-12T12:53:07.909Z,15.54
2023-05-12T12:55:36.736Z,15.55
2023-05-12T12:58:05.447Z,15.54
2023-05-12T13:00:35.764Z,15.57
2023-05-12T13:03:04.760Z,15.55
2023-05-12T13:05:33.441Z,15.32
2023-05-12T13:08:02.230Z,15.32
2023-05-12T13:10:31.160Z,15.25
2023-05-12T13:13:00.968Z,15.15
2023-05-12T13:15:32.822Z,15.12
2023-05-12T13:18:03.141Z,15.05
2023-05-12T13:20:32.127Z,14.97
2023-05-12T13:23:00.820Z,15.10
2023-05-12T13:25:29.608Z,15.10
2023-05-12T13:27:58.316Z,15.00
2023-05-12T13:30:27.297Z,14.88
2023-05-12T13:32:56.091Z,14.72
2023-05-12T13:35:26.310Z,14.77
2023-05-12T13:37:56.319Z,14.95
2023-05-12T13:40:25.290Z,15.10
2023-05-12T13:42:54.592Z,15.12
2023-05-12T13:45:24.268Z,15.07
2023-05-12T13:47:53.693Z,14.99
2023-05-12T13:50:22.549Z,15.07
2023-05-12T13:52:52.990Z,15.12
2023-05-12T13:55:22.206Z,15.09
2023-05-12T13:57:50.995Z,15.08
2023-05-12T14:00:20.727Z,14.95
2023-05-12T14:02:49.257Z,14.85
2023-05-12T14:05:19.642Z,14.72
2023-05-12T14:07:48.705Z,14.55
2023-05-12T14:10:18.891Z,14.37
2023-05-12T14:12:48.579Z,14.17
2023-05-12T14:17:49.365Z,14.16
2023-05-12T14:20:18.357Z,14.06
2023-05-12T14:22:47.268Z,14.00
2023-05-12T14:25:16.408Z,13.99
2023-05-12T14:27:46.699Z,14.05
2023-05-12T14:30:16.758Z,14.08
2023-05-12T14:32:45.741Z,14.00
2023-05-12T14:35:14.566Z,14.04
2023-05-12T14:37:43.501Z,14.06
2023-05-12T14:40:14.592Z,14.04
2023-05-12T14:42:44.819Z,13.87
2023-05-12T14:45:15.730Z,13.82
2023-05-12T14:47:44.668Z,13.78
2023-05-12T14:50:13.887Z,13.75
2023-05-12T14:52:42.583Z,13.73
2023-05-12T14:55:14.143Z,13.68
2023-05-12T14:57:43.748Z,13.64
2023-05-12T15:00:16.211Z,13.68
2023-05-12T15:02:46.619Z,13.69
2023-05-12T15:05:15.690Z,13.71
2023-05-12T15:07:44.528Z,13.77
2023-05-12T15:10:13.308Z,13.87
2023-05-12T15:12:41.950Z,14.01
2023-05-12T15:15:12.256Z,14.00
2023-05-12T15:17:42.702Z,13.99
2023-05-12T15:20:11.946Z,14.01
2023-05-12T15:22:40.726Z,14.01
2023-05-12T15:25:10.692Z,13.94
2023-05-12T15:27:39.559Z,13.89
2023-05-12T15:30:09.669Z,13.90
2023-05-12T15:32:41.645Z,13.76
2023-05-12T15:35:11.371Z,13.72
2023-05-12T15:37:40.062Z,13.77
2023-05-12T15:40:10.456Z,13.80
2023-05-12T15:42:39.326Z,13.85
2023-05-12T15:45:09.975Z,13.81
2023-05-12T15:47:38.889Z,13.77
2023-05-12T15:50:11.132Z,13.81
2023-05-12T15:52:39.929Z,13.83
2023-05-12T15:55:10.303Z,13.84
2023-05-12T15:57:39.550Z,13.79
2023-05-12T16:00:09.647Z,13.73
2023-05-12T16:02:44.278Z,13.59
2023-05-12T16:05:14.728Z,13.51
2023-05-12T16:07:43.807Z,13.41
2023-05-12T16:10:12.644Z,13.38
2023-05-12T16:12:41.449Z,13.38
2023-05-12T16:15:11.605Z,13.30
2023-05-12T16:17:40.469Z,13.30
2023-05-12T16:20:10.526Z,13.26
2023-05-12T16:22:40.798Z,13.13
2023-05-12T16:25:10.338Z,13.06
2023-05-12T16:27:39.120Z,13.04
2023-05-12T16:30:08.976Z,13.16
2023-05-12T16:32:38.328Z,13.24
2023-05-12T16:35:07.875Z,13.24
2023-05-12T16:37:36.970Z,13.16
2023-05-12T16:40:09.713Z,13.08
2023-05-12T16:42:38.592Z,13.04
2023-05-12T16:45:08.351Z,13.04
2023-05-12T16:47:37.251Z,13.07
2023-05-12T16:50:07.287Z,13.10
2023-05-12T16:52:36.200Z,13.17
2023-05-12T16:55:06.962Z,13.21
2023-05-12T16:57:36.689Z,13.22
2023-05-12T17:00:06.846Z,13.25
2023-05-12T17:02:35.818Z,13.25
2023-05-12T17:05:05.611Z,13.24
2023-05-12T17:07:35.607Z,13.21
2023-05-12T17:10:04.644Z,13.20
2023-05-12T17:12:35.024Z,13.14
2023-05-12T17:15:08.214Z,13.14
2023-05-12T17:17:37.686Z,13.18
2023-05-12T17:20:07.676Z,13.11
2023-05-12T17:22:41.710Z,13.16
2023-05-12T17:25:10.941Z,13.09
2023-05-12T17:27:41.202Z,13.09
2023-05-12T17:30:11.102Z,13.09
2023-05-12T17:32:40.147Z,13.09
2023-05-12T17:35:10.037Z,13.08
2023-05-12T17:37:40.260Z,13.09
2023-05-12T17:40:10.084Z,13.12
2023-05-12T17:42:40.360Z,13.13
2023-05-12T17:45:10.352Z,13.16
2023-05-12T17:47:39.183Z,13.21
2023-05-12T17:50:11.201Z,13.24
2023-05-12T17:52:40.301Z,13.25
2023-05-12T17:55:09.609Z,13.22
2023-05-12T17:57:38.668Z,13.22
2023-05-12T18:00:10.751Z,13.22
2023-05-12T18:02:46.448Z,13.27
2023-05-12T18:05:15.450Z,13.30
2023-05-12T18:07:44.303Z,13.33
2023-05-12T18:10:13.355Z,13.34
2023-05-12T18:12:42.136Z,13.31
2023-05-12T18:15:13.412Z,13.32
2023-05-12T18:17:42.355Z,13.28
2023-05-12T18:20:11.699Z,13.29
2023-05-12T18:22:40.464Z,13.30
2023-05-12T18:25:10.419Z,13.34
2023-05-12T18:27:39.167Z,13.38
2023-05-12T18:30:09.057Z,13.35
2023-05-12T18:32:39.807Z,13.33
2023-05-12T18:35:09.769Z,13.32
2023-05-12T18:37:38.786Z,13.30
2023-05-12T18:40:09.865Z,13.32
2023-05-12T18:42:38.770Z,13.38
2023-05-12T18:45:08.767Z,13.42
2023-05-12T18:47:37.859Z,13.42
2023-05-12T18:50:08.838Z,13.46
2023-05-12T18:52:37.732Z,13.43
2023-05-12T18:55:07.246Z,13.39
2023-05-12T18:57:36.048Z,13.31
2023-05-12T19:00:05.578Z,13.27
2023-05-12T19:02:34.873Z,13.26
2023-05-12T19:05:05.864Z,13.28
2023-05-12T19:07:36.214Z,13.25
2023-05-12T19:10:05.305Z,13.27
2023-05-12T19:12:34.149Z,13.29
2023-05-12T19:15:02.958Z,13.30
2023-05-12T19:17:31.937Z,13.30
2023-05-12T19:20:00.702Z,13.26
2023-05-12T19:22:29.641Z,13.26
2023-05-12T19:25:00.995Z,13.32
2023-05-12T19:27:29.908Z,13.32
2023-05-12T19:29:58.798Z,13.26
2023-05-12T19:32:29.012Z,13.26
2023-05-12T19:34:57.958Z,13.27
2023-05-12T19:37:27.507Z,13.26
2023-05-12T19:39:56.233Z,13.27
2023-05-12T19:42:26.445Z,13.28
2023-05-12T19:44:55.127Z,13.26
2023-05-12T19:47:26.826Z,13.18
2023-05-12T19:49:55.718Z,13.14
2023-05-12T19:52:26.100Z,13.09
2023-05-12T19:54:55.257Z,13.05
2023-05-12T19:57:25.380Z,12.95
2023-05-12T19:59:54.242Z,12.88
2023-05-12T20:02:28.668Z,12.81
2023-05-12T20:04:57.639Z,12.74
2023-05-12T20:07:26.673Z,12.79
2023-05-12T20:09:55.419Z,12.80
2023-05-12T20:12:25.640Z,12.77
2023-05-12T20:14:54.441Z,12.70
2023-05-12T20:17:23.671Z,12.67
2023-05-12T20:19:52.604Z,12.67
2023-05-12T20:22:24.281Z,12.66
2023-05-12T20:24:53.065Z,12.70
2023-05-12T20:27:21.817Z,12.75
2023-05-12T20:29:51.997Z,12.76
2023-05-12T20:32:20.837Z,12.71
2023-05-12T20:34:49.629Z,12.78
2023-05-12T20:37:19.303Z,12.80
2023-05-12T20:39:48.048Z,12.83
2023-05-12T20:42:16.900Z,12.79
2023-05-12T20:44:45.641Z,12.73
2023-05-12T20:47:16.003Z,12.73
2023-05-12T20:49:45.269Z,12.70
2023-05-12T20:52:14.041Z,12.64
2023-05-12T20:54:42.894Z,12.56
2023-05-12T20:57:12.510Z,12.55
2023-05-12T20:59:41.432Z,12.58
2023-05-12T21:02:11.094Z,12.57
2023-05-12T21:04:41.074Z,12.55
2023-05-12T21:07:09.906Z,12.51
2023-05-12T21:09:39.547Z,12.46
2023-05-12T21:12:08.913Z,12.47
2023-05-12T21:14:40.890Z,12.49
2023-05-12T21:17:10.709Z,12.49
2023-05-12T21:19:41.803Z,12.51
2023-05-12T21:22:11.014Z,12.50
2023-05-12T21:24:39.864Z,12.41
2023-05-12T21:27:09.680Z,12.40
2023-05-12T21:29:38.066Z,12.43
2023-05-12T21:32:07.405Z,12.45
2023-05-12T21:34:36.220Z,12.41
2023-05-12T21:37:06.764Z,12.38
2023-05-12T21:39:35.675Z,12.41
2023-05-12T21:42:04.384Z,12.42
2023-05-12T21:44:33.147Z,12.40
2023-05-12T21:47:03.618Z,12.40
2023-05-12T21:49:32.464Z,12.49
2023-05-12T21:52:01.229Z,12.50
2023-05-12T21:54:33.368Z,12.47
2023-05-12T21:57:02.978Z,12.45
2023-05-12T21:59:31.954Z,12.49
2023-05-12T22:02:00.992Z,12.49
2023-05-12T22:04:29.883Z,12.43
2023-05-12T22:06:58.606Z,12.50
2023-05-12T22:09:29.143Z,12.54
2023-05-12T22:12:00.735Z,12.55
2023-05-12T22:14:29.540Z,12.59
2023-05-12T22:16:58.392Z,12.55
2023-05-12T22:19:27.278Z,12.56
2023-05-12T22:21:57.244Z,12.58
2023-05-12T22:24:26.113Z,12.58
2023-05-12T22:26:54.871Z,12.60
2023-05-12T22:29:25.212Z,12.60
2023-05-12T22:31:54.052Z,12.61
2023-05-12T22:34:22.762Z,12.60
2023-05-12T22:36:51.840Z,12.58
2023-05-12T22:39:20.681Z,12.52
2023-05-12T22:41:49.460Z,12.53
2023-05-12T22:44:18.233Z,12.58
2023-05-12T22:46:48.571Z,12.57
2023-05-12T22:49:17.298Z,12.49
2023-05-12T22:51:46.125Z,12.52
2023-05-12T22:54:14.856Z,12.54
2023-05-12T22:56:43.630Z,12.59
2023-05-12T22:59:12.412Z,12.62
2023-05-12T23:01:41.354Z,12.59
2023-05-12T23:04:11.518Z,12.64
2023-05-12T23:06:40.449Z,12.63
2023-05-12T23:09:09.309Z,12.55
2023-05-12T23:11:38.079Z,12.49
2023-05-12T23:14:06.952Z,12.54
2023-05-12T23:16:35.820Z,12.55
2023-05-12T23:19:04.687Z,12.56
2023-05-12T23:21:35.289Z,12.58
2023-05-12T23:24:04.200Z,12.57
2023-05-12T23:26:33.234Z,12.59
2023-05-12T23:29:02.597Z,12.52
2023-05-12T23:31:31.417Z,12.52
2023-05-12T23:34:00.279Z,12.53
2023-05-12T23:36:29.020Z,12.58
2023-05-12T23:38:59.318Z,12.60
2023-05-12T23:41:31.895Z,12.56
2023-05-12T23:44:00.693Z,12.56
2023-05-12T23:46:29.588Z,12.52
2023-05-12T23:48:58.482Z,12.52
2023-05-12T23:51:28.969Z,12.49
2023-05-12T23:53:59.299Z,12.46
2023-05-12T23:56:28.070Z,12.45
2023-05-12T23:58:56.764Z,12.43
